createdAt,value
2018-10-17T00:00:52.666Z,0.00
2018-10-17T00:01:52.601Z,0.00
2018-10-17T00:02:52.608Z,0.00
2018-10-17T00:03:52.585Z,0.00
2018-10-17T00:04:52.589Z,0.00
2018-10-17T00:05:52.586Z,0.00
2018-10-17T00:06:52.612Z,0.00
2018-10-17T00:07:52.573Z,0.00
2018-10-17T00:08:52.566Z,0.00
2018-10-17T00:09:52.561Z,0.00
2018-10-17T00:10:52.592Z,0.00
2018-10-17T00:11:52.542Z,0.00
2018-10-17T00:12:52.565Z,0.00
2018-10-17T00:13:52.550Z,0.00
2018-10-17T00:14:52.527Z,0.00
2018-10-17T00:15:52.537Z,0.00
2018-10-17T00:16:52.528Z,0.00
2018-10-17T00:17:52.513Z,0.00
2018-10-17T00:18:52.507Z,0.00
2018-10-17T00:19:52.493Z,0.00
2018-10-17T00:20:52.492Z,0.00
2018-10-17T00:21:52.508Z,0.00
2018-10-17T00:22:52.494Z,0.00
2018-10-17T00:23:52.481Z,0.00
2018-10-17T00:24:52.523Z,0.00
2018-10-17T00:25:52.462Z,0.00
2018-10-17T00:26:52.463Z,0.00
2018-10-17T00:27:52.457Z,0.00
2018-10-17T00:28:52.496Z,0.00
2018-10-17T00:29:52.442Z,0.00
2018-10-17T00:30:52.443Z,0.00
2018-10-17T00:31:52.421Z,0.00
2018-10-17T00:32:52.430Z,0.00
2018-10-17T00:33:52.422Z,0.00
2018-10-17T00:34:52.413Z,0.00
2018-10-17T00:35:52.403Z,0.00
2018-10-17T00:36:52.403Z,0.00
2018-10-17T00:37:52.386Z,0.00
2018-10-17T00:38:52.396Z,0.00
2018-10-17T00:39:52.376Z,0.00
2018-10-17T00:40:52.386Z,0.00
2018-10-17T00:41:52.366Z,0.00
2018-10-17T00:42:52.384Z,0.00
2018-10-17T00:43:52.365Z,0.00
2018-10-17T00:44:52.348Z,0.00
2018-10-17T00:45:52.341Z,0.00
2018-10-17T00:46:52.368Z,0.00
2018-10-17T00:47:52.337Z,0.00
2018-10-17T00:48:52.357Z,0.00
2018-10-17T00:49:52.325Z,0.00
2018-10-17T00:50:52.313Z,0.00
2018-10-17T00:51:52.317Z,0.00
2018-10-17T00:52:52.361Z,0.00
2018-10-17T00:53:52.301Z,0.00
2018-10-17T00:54:52.294Z,0.00
2018-10-17T00:55:52.283Z,0.00
2018-10-17T00:56:52.284Z,0.00
2018-10-17T00:57:52.278Z,0.00
2018-10-17T00:58:52.281Z,0.00
2018-10-17T00:59:52.261Z,0.00
2018-10-17T01:00:52.264Z,0.00
2018-10-17T01:01:52.252Z,0.00
2018-10-17T01:02:52.248Z,0.00
2018-10-17T01:03:52.238Z,0.00
2018-10-17T01:04:52.268Z,0.00
2018-10-17T01:05:52.230Z,0.00
2018-10-17T01:06:52.267Z,0.00
2018-10-17T01:07:52.224Z,0.00
2018-10-17T01:08:52.222Z,0.00
2018-10-17T01:09:52.209Z,0.00
2018-10-17T01:10:52.204Z,0.00
2018-10-17T01:11:52.197Z,0.00
2018-10-17T01:12:52.220Z,0.00
2018-10-17T01:13:52.189Z,0.00
2018-10-17T01:14:52.174Z,0.00
2018-10-17T01:15:52.172Z,0.00
2018-10-17T01:16:52.175Z,0.00
2018-10-17T01:17:52.155Z,0.00
2018-10-17T01:18:52.188Z,0.00
2018-10-17T01:19:52.147Z,0.00
2018-10-17T01:20:52.143Z,0.00
2018-10-17T01:21:52.143Z,0.00
2018-10-17T01:22:52.129Z,0.00
2018-10-17T01:23:52.122Z,0.00
2018-10-17T01:24:52.118Z,0.00
2018-10-17T01:25:52.118Z,0.00
2018-10-17T01:26:52.108Z,0.00
2018-10-17T01:27:52.103Z,0.00
2018-10-17T01:28:52.114Z,0.00
2018-10-17T01:29:52.091Z,0.00
2018-10-17T01:30:52.116Z,0.00
2018-10-17T01:31:52.074Z,0.00
2018-10-17T01:32:52.069Z,0.00
2018-10-17T01:33:52.063Z,0.00
2018-10-17T01:34:52.086Z,0.00
2018-10-17T01:35:52.065Z,0.00
2018-10-17T01:36:52.095Z,0.00
2018-10-17T01:37:52.038Z,0.00
2018-10-17T01:38:52.035Z,0.00
2018-10-17T01:39:52.036Z,0.00
2018-10-17T01:40:52.026Z,0.00
2018-10-17T01:41:52.024Z,0.00
2018-10-17T01:42:52.020Z,0.00
2018-10-17T01:43:52.008Z,0.00
2018-10-17T01:44:52.003Z,0.00
2018-10-17T01:45:51.993Z,0.00
2018-10-17T01:46:52.040Z,0.00
2018-10-17T01:47:51.988Z,0.00
2018-10-17T01:48:52.013Z,0.00
2018-10-17T01:49:51.974Z,0.00
2018-10-17T01:50:51.965Z,0.00
2018-10-17T01:51:51.965Z,0.00
2018-10-17T01:52:52.001Z,0.00
2018-10-17T01:53:51.947Z,0.00
2018-10-17T01:54:51.958Z,0.00
2018-10-17T01:55:51.934Z,0.00
2018-10-17T01:56:51.929Z,0.00
2018-10-17T01:57:51.939Z,0.00
2018-10-17T01:58:51.980Z,0.00
2018-10-17T01:59:51.916Z,0.00
2018-10-17T02:00:51.921Z,0.00
2018-10-17T02:01:51.898Z,0.00
2018-10-17T02:02:51.897Z,0.00
2018-10-17T02:03:51.900Z,0.00
2018-10-17T02:04:51.899Z,0.00
2018-10-17T02:05:51.884Z,0.00
2018-10-17T02:06:51.885Z,0.00
2018-10-17T02:07:51.870Z,0.00
2018-10-17T02:08:51.868Z,0.00
2018-10-17T02:09:51.855Z,0.00
2018-10-17T02:10:51.855Z,0.00
2018-10-17T02:11:51.849Z,0.00
2018-10-17T02:12:51.844Z,0.00
2018-10-17T02:13:51.839Z,0.00
2018-10-17T02:14:51.825Z,0.00
2018-10-17T02:15:51.818Z,0.00
2018-10-17T02:16:51.820Z,0.00
2018-10-17T02:17:51.808Z,0.00
2018-10-17T02:18:51.826Z,0.00
2018-10-17T02:19:51.801Z,0.00
2018-10-17T02:20:51.788Z,0.00
2018-10-17T02:21:51.788Z,0.00
2018-10-17T02:22:51.808Z,0.00
2018-10-17T02:23:51.775Z,0.00
2018-10-17T02:24:51.794Z,0.00
2018-10-17T02:25:51.762Z,0.00
2018-10-17T02:26:51.758Z,0.00
2018-10-17T02:27:51.748Z,0.00
2018-10-17T02:28:51.752Z,0.00
2018-10-17T02:29:51.798Z,0.00
2018-10-17T02:30:51.794Z,0.00
2018-10-17T02:31:51.733Z,0.00
2018-10-17T02:32:51.718Z,0.00
2018-10-17T02:33:51.717Z,0.00
2018-10-17T02:34:51.747Z,0.00
2018-10-17T02:35:51.701Z,0.00
2018-10-17T02:36:51.711Z,0.00
2018-10-17T02:37:51.689Z,0.00
2018-10-17T02:38:51.688Z,0.00
2018-10-17T02:39:51.683Z,0.00
2018-10-17T02:40:51.722Z,0.00
2018-10-17T02:41:51.668Z,0.00
2018-10-17T02:42:51.666Z,0.00
2018-10-17T02:43:51.653Z,0.00
2018-10-17T02:44:51.662Z,0.00
2018-10-17T02:45:51.650Z,0.00
2018-10-17T02:46:51.660Z,0.00
2018-10-17T02:47:51.634Z,0.00
2018-10-17T02:48:51.664Z,0.00
2018-10-17T02:49:51.624Z,0.00
2018-10-17T02:50:51.625Z,0.00
2018-10-17T02:51:51.616Z,0.00
2018-10-17T02:52:51.607Z,0.00
2018-10-17T02:53:51.610Z,0.00
2018-10-17T02:54:51.597Z,0.00
2018-10-17T02:55:51.590Z,0.00
2018-10-17T02:56:51.579Z,0.00
2018-10-17T02:57:51.579Z,0.00
2018-10-17T02:58:51.637Z,0.00
2018-10-17T02:59:51.565Z,0.00
2018-10-17T03:00:51.590Z,0.00
2018-10-17T03:01:51.564Z,0.00
2018-10-17T03:02:51.545Z,0.00
2018-10-17T03:03:51.538Z,0.00
2018-10-17T03:04:51.548Z,0.00
2018-10-17T03:05:51.526Z,0.00
2018-10-17T03:06:51.548Z,0.00
2018-10-17T03:07:51.524Z,0.00
2018-10-17T03:08:51.524Z,0.00
2018-10-17T03:09:51.508Z,0.00
2018-10-17T03:10:51.520Z,0.00
2018-10-17T03:11:51.498Z,0.00
2018-10-17T03:12:51.540Z,0.00
2018-10-17T03:13:51.479Z,0.00
2018-10-17T03:14:51.481Z,0.00
2018-10-17T03:15:51.474Z,0.00
2018-10-17T03:16:51.513Z,0.00
2018-10-17T03:17:51.465Z,0.00
2018-10-17T03:18:51.455Z,0.00
2018-10-17T03:19:51.451Z,0.00
2018-10-17T03:20:51.441Z,0.00
2018-10-17T03:21:51.437Z,0.00
2018-10-17T03:22:51.458Z,0.00
2018-10-17T03:23:51.423Z,0.00
2018-10-17T03:24:51.452Z,0.00
2018-10-17T03:25:51.416Z,0.00
2018-10-17T03:26:51.413Z,0.00
2018-10-17T03:27:51.420Z,0.00
2018-10-17T03:28:51.425Z,0.00
2018-10-17T03:29:51.391Z,0.00
2018-10-17T03:30:51.429Z,0.00
2018-10-17T03:31:51.391Z,0.00
2018-10-17T03:32:51.378Z,0.00
2018-10-17T03:33:51.364Z,0.00
2018-10-17T03:34:51.416Z,0.00
2018-10-17T03:35:51.368Z,0.00
2018-10-17T03:36:51.356Z,0.00
2018-10-17T03:37:51.355Z,0.00
2018-10-17T03:38:51.335Z,0.00
2018-10-17T03:39:51.347Z,0.00
2018-10-17T03:40:51.331Z,0.00
2018-10-17T03:41:51.323Z,0.00
2018-10-17T03:42:51.368Z,0.00
2018-10-17T03:43:51.345Z,0.00
2018-10-17T03:44:51.299Z,0.00
2018-10-17T03:45:51.295Z,0.00
2018-10-17T03:46:51.314Z,0.00
2018-10-17T03:47:51.291Z,0.00
2018-10-17T03:48:51.297Z,0.00
2018-10-17T03:49:51.358Z,0.00
2018-10-17T03:50:51.266Z,0.00
2018-10-17T03:51:51.263Z,0.00
2018-10-17T03:52:51.269Z,0.00
2018-10-17T03:53:51.252Z,0.00
2018-10-17T03:54:51.283Z,0.00
2018-10-17T03:55:51.232Z,0.00
2018-10-17T03:56:51.235Z,0.00
2018-10-17T03:57:51.225Z,0.00
2018-10-17T03:58:51.231Z,0.00
2018-10-17T03:59:51.211Z,0.00
2018-10-17T04:00:51.216Z,0.00
2018-10-17T04:01:51.199Z,0.00
2018-10-17T04:02:51.251Z,0.00
2018-10-17T04:03:51.185Z,0.00
2018-10-17T04:04:51.198Z,0.00
2018-10-17T04:05:51.186Z,0.00
2018-10-17T04:06:51.177Z,0.00
2018-10-17T04:07:51.181Z,0.00
2018-10-17T04:08:51.160Z,0.00
2018-10-17T04:09:51.154Z,0.00
2018-10-17T04:10:51.213Z,0.00
2018-10-17T04:11:51.142Z,0.00
2018-10-17T04:12:51.158Z,0.00
2018-10-17T04:13:51.131Z,0.00
2018-10-17T04:14:51.125Z,0.00
2018-10-17T04:15:51.114Z,0.00
2018-10-17T04:16:51.113Z,0.00
2018-10-17T04:17:51.107Z,0.00
2018-10-17T04:18:51.145Z,0.00
2018-10-17T04:19:51.096Z,0.00
2018-10-17T04:20:51.087Z,0.00
2018-10-17T04:21:51.088Z,0.00
2018-10-17T04:22:51.107Z,0.00
2018-10-17T04:23:51.072Z,0.00
2018-10-17T04:24:51.073Z,0.00
2018-10-17T04:25:51.056Z,0.00
2018-10-17T04:26:51.052Z,0.00
2018-10-17T04:27:51.052Z,0.00
2018-10-17T04:28:51.078Z,0.00
2018-10-17T04:29:51.042Z,0.00
2018-10-17T04:30:51.030Z,0.00
2018-10-17T04:31:51.027Z,0.00
2018-10-17T04:32:51.017Z,0.00
2018-10-17T04:33:51.020Z,0.00
2018-10-17T04:34:51.026Z,0.00
2018-10-17T04:35:51.003Z,0.00
2018-10-17T04:36:51.059Z,0.00
2018-10-17T04:37:50.989Z,0.00
2018-10-17T04:38:50.987Z,0.00
2018-10-17T04:39:50.981Z,0.00
2018-10-17T04:40:50.988Z,0.00
2018-10-17T04:41:50.977Z,0.00
2018-10-17T04:42:50.983Z,0.00
2018-10-17T04:43:50.957Z,0.00
2018-10-17T04:44:50.945Z,0.00
2018-10-17T04:45:50.946Z,0.00
2018-10-17T04:46:50.986Z,0.00
2018-10-17T04:47:50.931Z,0.00
2018-10-17T04:48:50.932Z,0.00
2018-10-17T04:49:50.925Z,0.00
2018-10-17T04:50:50.916Z,0.00
2018-10-17T04:51:50.916Z,0.00
2018-10-17T04:52:50.913Z,0.00
2018-10-17T04:53:50.897Z,0.00
2018-10-17T04:54:50.959Z,0.00
2018-10-17T04:55:50.888Z,0.00
2018-10-17T04:56:50.880Z,0.00
2018-10-17T04:57:50.876Z,0.00
2018-10-17T04:58:50.874Z,0.00
2018-10-17T04:59:50.856Z,0.00
2018-10-17T05:00:50.899Z,0.00
2018-10-17T05:01:50.849Z,0.00
2018-10-17T05:02:50.850Z,0.00
2018-10-17T05:03:50.835Z,0.00
2018-10-17T05:04:50.829Z,0.00
2018-10-17T05:05:50.822Z,0.00
2018-10-17T05:06:50.873Z,0.00
2018-10-17T05:07:50.815Z,0.00
2018-10-17T05:08:50.811Z,0.00
2018-10-17T05:09:50.803Z,0.00
2018-10-17T05:10:50.824Z,0.00
2018-10-17T05:11:50.790Z,0.00
2018-10-17T05:12:50.796Z,0.00
2018-10-17T05:13:50.790Z,0.00
2018-10-17T05:14:50.770Z,0.00
2018-10-17T05:15:50.780Z,0.00
2018-10-17T05:16:50.762Z,0.00
2018-10-17T05:17:50.772Z,0.00
2018-10-17T05:18:50.746Z,0.00
2018-10-17T05:19:50.751Z,0.00
2018-10-17T05:20:50.735Z,0.00
2018-10-17T05:21:50.737Z,0.00
2018-10-17T05:22:50.722Z,0.00
2018-10-17T05:23:50.722Z,0.00
2018-10-17T05:24:50.717Z,0.00
2018-10-17T05:25:50.706Z,0.00
2018-10-17T05:26:50.705Z,0.00
2018-10-17T05:27:50.692Z,0.00
2018-10-17T05:28:50.741Z,0.00
2018-10-17T05:29:50.756Z,0.00
2018-10-17T05:30:50.681Z,0.00
2018-10-17T05:31:50.675Z,0.00
2018-10-17T05:32:50.670Z,0.00
2018-10-17T05:33:50.661Z,0.00
2018-10-17T05:34:50.657Z,0.00
2018-10-17T05:35:50.646Z,0.00
2018-10-17T05:36:50.653Z,0.00
2018-10-17T05:37:50.800Z,0.00
2018-10-17T05:38:50.639Z,0.00
2018-10-17T05:39:50.638Z,0.00
2018-10-17T05:40:50.620Z,0.00
2018-10-17T05:41:50.618Z,0.00
2018-10-17T05:42:50.617Z,0.00
2018-10-17T05:43:50.652Z,0.00
2018-10-17T05:44:50.597Z,0.00
2018-10-17T05:45:50.591Z,0.00
2018-10-17T05:46:50.595Z,0.00
2018-10-17T05:47:50.576Z,0.00
2018-10-17T05:48:50.572Z,0.00
2018-10-17T05:49:50.588Z,0.00
2018-10-17T05:50:50.568Z,0.00
2018-10-17T05:51:50.559Z,0.00
2018-10-17T05:52:50.602Z,0.00
2018-10-17T05:53:50.549Z,0.00
2018-10-17T05:54:50.552Z,0.00
2018-10-17T05:55:50.544Z,0.00
2018-10-17T05:56:50.527Z,0.00
2018-10-17T05:57:50.523Z,0.00
2018-10-17T05:58:50.527Z,0.00
2018-10-17T05:59:50.516Z,0.00
2018-10-17T06:00:50.508Z,0.00
2018-10-17T06:01:50.535Z,0.00
2018-10-17T06:02:50.495Z,0.00
2018-10-17T06:03:50.487Z,0.00
2018-10-17T06:04:50.478Z,0.00
2018-10-17T06:05:50.469Z,0.00
2018-10-17T06:06:50.461Z,0.00
2018-10-17T06:07:50.472Z,0.00
2018-10-17T06:08:50.457Z,0.00
2018-10-17T06:09:50.463Z,0.00
2018-10-17T06:10:50.449Z,0.00
2018-10-17T06:11:50.430Z,0.00
2018-10-17T06:12:50.432Z,0.00
2018-10-17T06:13:50.426Z,4.00
2018-10-17T06:14:50.428Z,4.00
2018-10-17T06:15:50.413Z,4.00
2018-10-17T06:16:50.475Z,0.00
2018-10-17T06:17:50.408Z,0.00
2018-10-17T06:18:50.396Z,0.00
2018-10-17T06:19:50.388Z,0.00
2018-10-17T06:20:50.390Z,0.00
2018-10-17T06:21:50.396Z,0.00
2018-10-17T06:22:50.374Z,0.00
2018-10-17T06:23:50.371Z,0.00
2018-10-17T06:24:50.360Z,0.00
2018-10-17T06:25:50.359Z,0.00
2018-10-17T06:26:50.361Z,4.00
2018-10-17T06:27:50.349Z,4.00
2018-10-17T06:28:50.339Z,4.00
2018-10-17T06:29:50.335Z,4.00
2018-10-17T06:30:50.436Z,4.00
2018-10-17T06:31:50.320Z,4.00
2018-10-17T06:32:50.319Z,4.00
2018-10-17T06:33:50.373Z,4.00
2018-10-17T06:34:50.401Z,4.00
2018-10-17T06:35:50.303Z,4.00
2018-10-17T06:36:50.289Z,0.00
2018-10-17T06:37:50.298Z,0.00
2018-10-17T06:38:50.272Z,4.00
2018-10-17T06:39:50.280Z,4.00
2018-10-17T06:40:50.327Z,4.00
2018-10-17T06:41:50.264Z,4.00
2018-10-17T06:42:50.259Z,4.00
2018-10-17T06:43:50.287Z,4.00
2018-10-17T06:44:50.249Z,4.00
2018-10-17T06:45:50.276Z,8.00
2018-10-17T06:46:50.234Z,4.00
2018-10-17T06:47:50.234Z,4.00
2018-10-17T06:48:50.217Z,4.00
2018-10-17T06:49:50.228Z,4.00
2018-10-17T06:50:50.204Z,4.00
2018-10-17T06:51:50.204Z,4.00
2018-10-17T06:52:50.190Z,4.00
2018-10-17T06:53:50.228Z,8.00
2018-10-17T06:54:50.191Z,8.00
2018-10-17T06:55:50.186Z,4.00
2018-10-17T06:56:50.176Z,8.00
2018-10-17T06:57:50.168Z,8.00
2018-10-17T06:58:50.160Z,8.00
2018-10-17T06:59:50.166Z,8.00
2018-10-17T07:00:50.144Z,8.00
2018-10-17T07:01:50.204Z,8.00
2018-10-17T07:02:50.148Z,8.00
2018-10-17T07:03:50.137Z,8.00
2018-10-17T07:04:50.128Z,12.00
2018-10-17T07:05:50.125Z,12.00
2018-10-17T07:06:50.115Z,16.00
2018-10-17T07:07:50.115Z,16.00
2018-10-17T07:08:50.104Z,16.00
2018-10-17T07:09:50.104Z,16.00
2018-10-17T07:10:50.107Z,12.00
2018-10-17T07:11:50.100Z,12.00
2018-10-17T07:12:50.074Z,8.00
2018-10-17T07:13:50.075Z,12.00
2018-10-17T07:14:50.072Z,12.00
2018-10-17T07:15:50.099Z,12.00
2018-10-17T07:16:50.054Z,12.00
2018-10-17T07:17:50.048Z,12.00
2018-10-17T07:18:50.052Z,16.00
2018-10-17T07:19:50.052Z,16.00
2018-10-17T07:20:50.033Z,16.00
2018-10-17T07:21:50.028Z,16.00
2018-10-17T07:22:50.015Z,12.00
2018-10-17T07:23:50.014Z,16.00
2018-10-17T07:24:50.009Z,20.00
2018-10-17T07:25:50.000Z,16.00
2018-10-17T07:26:49.998Z,16.00
2018-10-17T07:27:49.998Z,16.00
2018-10-17T07:28:50.028Z,12.00
2018-10-17T07:29:50.067Z,12.00
2018-10-17T07:30:49.976Z,12.00
2018-10-17T07:31:49.968Z,12.00
2018-10-17T07:32:49.963Z,12.00
2018-10-17T07:33:49.956Z,12.00
2018-10-17T07:34:49.965Z,12.00
2018-10-17T07:35:50.033Z,12.00
2018-10-17T07:36:49.929Z,12.00
2018-10-17T07:37:49.935Z,12.00
2018-10-17T07:38:49.932Z,12.00
2018-10-17T07:39:49.919Z,12.00
2018-10-17T07:40:49.912Z,12.00
2018-10-17T07:41:49.910Z,12.00
2018-10-17T07:42:49.907Z,12.00
2018-10-17T07:43:49.905Z,16.00
2018-10-17T07:44:49.885Z,16.00
2018-10-17T07:45:49.897Z,12.00
2018-10-17T07:46:49.897Z,16.00
2018-10-17T07:47:49.873Z,16.00
2018-10-17T07:48:49.870Z,16.00
2018-10-17T07:49:49.869Z,16.00
2018-10-17T07:50:49.850Z,20.00
2018-10-17T07:51:49.851Z,20.00
2018-10-17T07:52:49.846Z,20.00
2018-10-17T07:53:49.836Z,16.00
2018-10-17T07:54:49.836Z,16.00
2018-10-17T07:55:49.834Z,16.00
2018-10-17T07:56:49.838Z,16.00
2018-10-17T07:57:49.822Z,16.00
2018-10-17T07:58:49.812Z,16.00
2018-10-17T07:59:49.849Z,16.00
2018-10-17T08:00:49.789Z,20.00
2018-10-17T08:01:49.784Z,24.00
2018-10-17T08:02:49.807Z,36.00
2018-10-17T08:03:49.805Z,36.00
2018-10-17T08:04:49.783Z,36.00
2018-10-17T08:05:49.771Z,36.00
2018-10-17T08:06:49.804Z,36.00
2018-10-17T08:07:49.776Z,32.00
2018-10-17T08:08:49.766Z,44.00
2018-10-17T08:09:49.750Z,44.00
2018-10-17T08:10:49.753Z,48.00
2018-10-17T08:11:49.735Z,52.00
2018-10-17T08:12:49.739Z,52.00
2018-10-17T08:13:49.733Z,52.00
2018-10-17T08:14:49.732Z,52.00
2018-10-17T08:15:49.705Z,48.00
2018-10-17T08:16:49.706Z,52.00
2018-10-17T08:17:49.701Z,56.00
2018-10-17T08:18:49.699Z,56.00
2018-10-17T08:19:49.690Z,48.00
2018-10-17T08:20:49.692Z,40.00
2018-10-17T08:21:49.675Z,40.00
2018-10-17T08:22:49.670Z,44.00
2018-10-17T08:23:49.666Z,40.00
2018-10-17T08:24:49.661Z,52.00
2018-10-17T08:25:49.658Z,60.00
2018-10-17T08:26:49.650Z,68.00
2018-10-17T08:27:49.646Z,72.00
2018-10-17T08:28:49.634Z,68.00
2018-10-17T08:29:49.632Z,68.00
2018-10-17T08:30:49.619Z,76.00
2018-10-17T08:31:49.617Z,72.00
2018-10-17T08:32:49.606Z,72.00
2018-10-17T08:33:49.613Z,60.00
2018-10-17T08:34:49.601Z,68.00
2018-10-17T08:35:49.719Z,64.00
2018-10-17T08:36:49.816Z,72.00
2018-10-17T08:37:50.071Z,72.00
2018-10-17T08:38:49.590Z,72.00
2018-10-17T08:39:49.571Z,76.00
2018-10-17T08:40:49.568Z,76.00
2018-10-17T08:41:49.574Z,80.00
2018-10-17T08:42:49.556Z,80.00
2018-10-17T08:43:49.550Z,84.00
2018-10-17T08:44:49.537Z,84.00
2018-10-17T08:45:49.542Z,88.00
2018-10-17T08:46:49.531Z,92.00
2018-10-17T08:47:49.528Z,96.00
2018-10-17T08:48:49.521Z,88.00
2018-10-17T08:49:49.521Z,80.00
2018-10-17T08:50:49.573Z,80.00
2018-10-17T08:51:49.504Z,72.00
2018-10-17T08:52:49.502Z,84.00
2018-10-17T08:53:49.508Z,88.00
2018-10-17T08:54:49.475Z,84.00
2018-10-17T08:55:49.512Z,88.00
2018-10-17T08:56:49.475Z,84.00
2018-10-17T08:57:49.513Z,80.00
2018-10-17T08:58:49.467Z,88.00
2018-10-17T08:59:49.447Z,96.00
2018-10-17T09:00:49.447Z,92.00
2018-10-17T09:01:49.443Z,96.00
2018-10-17T09:02:49.438Z,96.00
2018-10-17T09:03:49.441Z,96.00
2018-10-17T09:04:49.451Z,96.00
2018-10-17T09:05:49.421Z,92.00
2018-10-17T09:06:49.420Z,88.00
2018-10-17T09:07:49.444Z,88.00
2018-10-17T09:08:49.411Z,84.00
2018-10-17T09:09:49.403Z,88.00
2018-10-17T09:10:49.398Z,84.00
2018-10-17T09:11:49.407Z,84.00
2018-10-17T09:12:49.384Z,88.00
2018-10-17T09:13:49.390Z,88.00
2018-10-17T09:14:49.379Z,92.00
2018-10-17T09:15:49.368Z,96.00
2018-10-17T09:16:49.392Z,96.00
2018-10-17T09:17:49.355Z,80.00
2018-10-17T09:18:49.352Z,88.00
2018-10-17T09:19:49.473Z,108.00
2018-10-17T09:20:49.753Z,116.00
2018-10-17T09:21:49.488Z,116.00
2018-10-17T09:22:49.336Z,108.00
2018-10-17T09:23:49.317Z,100.00
2018-10-17T09:24:49.324Z,108.00
2018-10-17T09:25:49.311Z,104.00
2018-10-17T09:26:49.356Z,104.00
2018-10-17T09:27:49.317Z,112.00
2018-10-17T09:28:49.294Z,100.00
2018-10-17T09:29:49.299Z,116.00
2018-10-17T09:30:49.352Z,108.00
2018-10-17T09:31:49.282Z,104.00
2018-10-17T09:32:49.271Z,104.00
2018-10-17T09:33:49.271Z,104.00
2018-10-17T09:34:49.272Z,96.00
2018-10-17T09:35:49.323Z,108.00
2018-10-17T09:36:49.258Z,112.00
2018-10-17T09:37:49.236Z,108.00
2018-10-17T09:38:49.243Z,108.00
2018-10-17T09:39:49.242Z,108.00
2018-10-17T09:40:49.233Z,104.00
2018-10-17T09:41:49.226Z,80.00
2018-10-17T09:42:49.219Z,76.00
2018-10-17T09:43:49.215Z,84.00
2018-10-17T09:44:49.214Z,96.00
2018-10-17T09:45:49.205Z,108.00
2018-10-17T09:46:49.267Z,104.00
2018-10-17T09:47:49.202Z,112.00
2018-10-17T09:48:49.187Z,112.00
2018-10-17T09:49:49.198Z,112.00
2018-10-17T09:50:49.201Z,112.00
2018-10-17T09:51:49.168Z,112.00
2018-10-17T09:52:49.182Z,108.00
2018-10-17T09:53:49.169Z,108.00
2018-10-17T09:54:49.153Z,104.00
2018-10-17T09:55:49.158Z,104.00
2018-10-17T09:56:49.138Z,108.00
2018-10-17T09:57:49.144Z,104.00
2018-10-17T09:58:49.133Z,100.00
2018-10-17T09:59:49.146Z,104.00
2018-10-17T10:00:49.114Z,100.00
2018-10-17T10:01:49.111Z,100.00
2018-10-17T10:02:49.124Z,104.00
2018-10-17T10:03:49.111Z,104.00
2018-10-17T10:04:49.114Z,104.00
2018-10-17T10:05:49.096Z,104.00
2018-10-17T10:06:49.086Z,104.00
2018-10-17T10:07:49.082Z,100.00
2018-10-17T10:08:49.072Z,100.00
2018-10-17T10:09:49.076Z,100.00
2018-10-17T10:10:49.127Z,100.00
2018-10-17T10:11:49.073Z,96.00
2018-10-17T10:12:49.073Z,96.00
2018-10-17T10:13:49.050Z,96.00
2018-10-17T10:14:49.046Z,92.00
2018-10-17T10:15:49.036Z,92.00
2018-10-17T10:16:49.042Z,92.00
2018-10-17T10:17:49.027Z,96.00
2018-10-17T10:18:49.025Z,92.00
2018-10-17T10:19:49.013Z,92.00
2018-10-17T10:20:49.019Z,92.00
2018-10-17T10:21:49.008Z,84.00
2018-10-17T10:22:49.006Z,84.00
2018-10-17T10:23:49.064Z,88.00
2018-10-17T10:24:49.031Z,88.00
2018-10-17T10:25:48.986Z,84.00
2018-10-17T10:26:49.035Z,76.00
2018-10-17T10:27:48.973Z,80.00
2018-10-17T10:28:48.976Z,76.00
2018-10-17T10:29:49.058Z,76.00
2018-10-17T10:30:48.971Z,76.00
2018-10-17T10:31:48.949Z,72.00
2018-10-17T10:32:48.948Z,76.00
2018-10-17T10:33:48.947Z,76.00
2018-10-17T10:34:48.933Z,76.00
2018-10-17T10:35:48.932Z,76.00
2018-10-17T10:36:48.928Z,72.00
2018-10-17T10:37:48.924Z,76.00
2018-10-17T10:38:48.917Z,76.00
2018-10-17T10:39:48.912Z,72.00
2018-10-17T10:40:48.912Z,72.00
2018-10-17T10:41:48.908Z,72.00
2018-10-17T10:42:48.893Z,72.00
2018-10-17T10:43:48.896Z,68.00
2018-10-17T10:44:48.890Z,64.00
2018-10-17T10:45:48.884Z,68.00
2018-10-17T10:46:48.871Z,64.00
2018-10-17T10:47:48.859Z,64.00
2018-10-17T10:48:48.872Z,60.00
2018-10-17T10:49:48.854Z,64.00
2018-10-17T10:50:48.858Z,64.00
2018-10-17T10:51:48.848Z,64.00
2018-10-17T10:52:48.892Z,64.00
2018-10-17T10:53:48.837Z,64.00
2018-10-17T10:54:48.885Z,60.00
2018-10-17T10:55:48.823Z,56.00
2018-10-17T10:56:48.824Z,60.00
2018-10-17T10:57:48.818Z,60.00
2018-10-17T10:58:48.918Z,56.00
2018-10-17T10:59:48.809Z,60.00
2018-10-17T11:00:48.798Z,56.00
2018-10-17T11:01:48.803Z,56.00
2018-10-17T11:02:48.790Z,56.00
2018-10-17T11:03:48.787Z,52.00
2018-10-17T11:04:48.846Z,56.00
2018-10-17T11:05:48.934Z,52.00
2018-10-17T11:06:48.768Z,52.00
2018-10-17T11:07:48.771Z,52.00
2018-10-17T11:08:48.758Z,52.00
2018-10-17T11:09:48.756Z,52.00
2018-10-17T11:10:48.749Z,48.00
2018-10-17T11:11:48.759Z,52.00
2018-10-17T11:12:48.741Z,52.00
2018-10-17T11:13:48.752Z,48.00
2018-10-17T11:14:48.810Z,44.00
2018-10-17T11:15:48.728Z,48.00
2018-10-17T11:16:48.714Z,48.00
2018-10-17T11:17:48.724Z,48.00
2018-10-17T11:18:48.696Z,44.00
2018-10-17T11:19:48.689Z,44.00
2018-10-17T11:20:48.689Z,44.00
2018-10-17T11:21:48.724Z,44.00
2018-10-17T11:22:48.694Z,40.00
2018-10-17T11:23:48.676Z,40.00
2018-10-17T11:24:48.674Z,40.00
2018-10-17T11:25:48.669Z,40.00
2018-10-17T11:26:48.667Z,40.00
2018-10-17T11:27:48.660Z,40.00
2018-10-17T11:28:48.655Z,32.00
2018-10-17T11:29:48.655Z,32.00
2018-10-17T11:30:48.649Z,36.00
2018-10-17T11:31:48.690Z,40.00
2018-10-17T11:32:48.634Z,36.00
2018-10-17T11:33:48.626Z,36.00
2018-10-17T11:34:48.627Z,36.00
2018-10-17T11:35:48.646Z,36.00
2018-10-17T11:36:48.604Z,32.00
2018-10-17T11:37:48.653Z,32.00
2018-10-17T11:38:48.607Z,32.00
2018-10-17T11:39:48.597Z,36.00
2018-10-17T11:40:48.591Z,32.00
2018-10-17T11:41:48.588Z,32.00
2018-10-17T11:42:48.602Z,28.00
2018-10-17T11:43:48.573Z,28.00
2018-10-17T11:44:48.568Z,32.00
2018-10-17T11:45:48.558Z,28.00
2018-10-17T11:46:48.564Z,28.00
2018-10-17T11:47:48.656Z,28.00
2018-10-17T11:48:48.553Z,28.00
2018-10-17T11:49:48.536Z,32.00
2018-10-17T11:50:48.533Z,32.00
2018-10-17T11:51:48.531Z,28.00
2018-10-17T11:52:48.535Z,32.00
2018-10-17T11:53:48.540Z,28.00
2018-10-17T11:54:48.520Z,32.00
2018-10-17T11:55:48.511Z,28.00
2018-10-17T11:56:48.508Z,28.00
2018-10-17T11:57:48.525Z,28.00
2018-10-17T11:58:48.498Z,24.00
2018-10-17T11:59:48.544Z,28.00
2018-10-17T12:00:48.481Z,28.00
2018-10-17T12:01:48.471Z,24.00
2018-10-17T12:02:48.472Z,28.00
2018-10-17T12:03:48.640Z,24.00
2018-10-17T12:04:48.627Z,24.00
2018-10-17T12:05:48.628Z,28.00
2018-10-17T12:06:48.448Z,24.00
2018-10-17T12:07:48.443Z,28.00
2018-10-17T12:08:48.436Z,24.00
2018-10-17T12:09:48.449Z,24.00
2018-10-17T12:10:48.438Z,24.00
2018-10-17T12:11:48.519Z,20.00
2018-10-17T12:12:48.414Z,24.00
2018-10-17T12:13:48.409Z,24.00
2018-10-17T12:14:48.407Z,24.00
2018-10-17T12:15:48.415Z,24.00
2018-10-17T12:16:48.398Z,20.00
2018-10-17T12:17:48.399Z,12.00
2018-10-17T12:18:48.405Z,16.00
2018-10-17T12:19:48.428Z,12.00
2018-10-17T12:20:48.412Z,20.00
2018-10-17T12:21:48.397Z,24.00
2018-10-17T12:22:48.376Z,24.00
2018-10-17T12:23:48.364Z,24.00
2018-10-17T12:24:48.354Z,24.00
2018-10-17T12:25:48.346Z,24.00
2018-10-17T12:26:48.346Z,24.00
2018-10-17T12:27:48.399Z,20.00
2018-10-17T12:28:48.366Z,24.00
2018-10-17T12:29:48.326Z,20.00
2018-10-17T12:30:48.314Z,24.00
2018-10-17T12:31:48.312Z,20.00
2018-10-17T12:32:48.306Z,20.00
2018-10-17T12:33:48.305Z,20.00
2018-10-17T12:34:48.310Z,20.00
2018-10-17T12:35:48.294Z,20.00
2018-10-17T12:36:48.294Z,16.00
2018-10-17T12:37:48.287Z,16.00
2018-10-17T12:38:48.298Z,16.00
2018-10-17T12:39:48.313Z,16.00
2018-10-17T12:40:48.429Z,16.00
2018-10-17T12:41:48.286Z,12.00
2018-10-17T12:42:48.254Z,12.00
2018-10-17T12:43:48.254Z,16.00
2018-10-17T12:44:48.291Z,12.00
2018-10-17T12:45:48.334Z,12.00
2018-10-17T12:46:48.236Z,12.00
2018-10-17T12:47:48.235Z,12.00
2018-10-17T12:48:48.636Z,16.00
2018-10-17T12:49:48.240Z,12.00
2018-10-17T12:50:48.218Z,16.00
2018-10-17T12:51:48.217Z,12.00
2018-10-17T12:52:48.334Z,12.00
2018-10-17T12:53:48.200Z,12.00
2018-10-17T12:54:48.201Z,12.00
2018-10-17T12:55:48.598Z,12.00
2018-10-17T12:56:48.547Z,12.00
2018-10-17T12:57:48.727Z,8.00
2018-10-17T12:58:48.306Z,12.00
2018-10-17T12:59:48.169Z,12.00
2018-10-17T13:00:48.306Z,12.00
2018-10-17T13:01:48.543Z,12.00
2018-10-17T13:02:48.479Z,16.00
2018-10-17T13:03:48.140Z,20.00
2018-10-17T13:04:48.140Z,16.00